Time;durP1;ratioP1;P1;durP2;ratioP2;P2;SDS_P1;SDS_P2;PMS_P1;PMS_P2;Temp;Humidity;BMP_temperature;BMP_pressure;BME280_temperature;BME280_humidity;BME280_pressure;Samples;Min_cycle;Max_cycle;Signal;HPM_P1;HPM_P2
2022/07/22 00:01:24;;;;;;;12.15;5.60;;;18.20;99.90;;;;;;4952917;28;20208;-57
2022/07/22 00:03:50;;;;;;;12.13;5.65;;;18.30;99.90;;;;;;4953064;28;20181;-57
2022/07/22 00:06:16;;;;;;;10.85;5.43;;;18.30;99.90;;;;;;4953478;28;20176;-57
2022/07/22 00:08:42;;;;;;;10.10;5.30;;;18.30;99.90;;;;;;4952922;28;20270;-57
2022/07/22 00:11:08;;;;;;;11.93;5.10;;;18.30;99.90;;;;;;4952892;28;20242;-58
2022/07/22 00:13:34;;;;;;;12.13;5.28;;;18.20;99.90;;;;;;4952800;28;20799;-64
2022/07/22 00:16:00;;;;;;;10.13;5.45;;;18.20;99.90;;;;;;4952934;28;20708;-58
2022/07/22 00:18:26;;;;;;;9.10;5.53;;;18.30;99.90;;;;;;4952906;28;20228;-58
2022/07/22 00:20:51;;;;;;;10.68;5.60;;;18.30;99.90;;;;;;4952668;28;20560;-57
2022/07/22 00:23:17;;;;;;;9.13;5.40;;;18.30;99.90;;;;;;4952294;29;20180;-58
2022/07/22 00:25:43;;;;;;;9.35;5.30;;;18.30;99.90;;;;;;4952677;28;20180;-57
2022/07/22 00:28:09;;;;;;;10.13;5.25;;;18.30;99.90;;;;;;4952756;28;20256;-57
2022/07/22 00:30:35;;;;;;;8.82;5.65;;;18.30;99.90;;;;;;4952465;28;20255;-58
2022/07/22 00:33:01;;;;;;;6.72;5.15;;;18.30;99.90;;;;;;4952699;28;20647;-57
2022/07/22 00:35:27;;;;;;;10.00;5.43;;;18.30;99.90;;;;;;4952721;28;20515;-58
2022/07/22 00:37:52;;;;;;;8.27;4.97;;;18.40;99.90;;;;;;4952430;28;20181;-57
2022/07/22 00:40:18;;;;;;;10.65;5.63;;;18.40;99.90;;;;;;4952809;28;20173;-57
2022/07/22 00:42:44;;;;;;;10.85;5.60;;;18.50;99.90;;;;;;4952677;28;20632;-58
2022/07/22 00:45:11;;;;;;;9.52;4.97;;;18.50;99.90;;;;;;4952634;29;20707;-58
2022/07/22 00:47:37;;;;;;;10.90;5.00;;;18.50;99.90;;;;;;4952677;28;20271;-57
2022/07/22 00:50:04;;;;;;;9.75;5.07;;;18.60;99.90;;;;;;4952545;28;20680;-57
2022/07/22 00:52:31;;;;;;;9.95;4.70;;;18.60;99.90;;;;;;4952542;28;20227;-58
2022/07/22 00:54:59;;;;;;;8.15;4.85;;;18.60;99.90;;;;;;4952620;28;20195;-58
2022/07/22 00:57:25;;;;;;;8.57;4.53;;;18.60;99.90;;;;;;4952858;28;20172;-58
2022/07/22 00:59:51;;;;;;;10.20;4.97;;;18.70;99.90;;;;;;4956262;28;20192;-57
2022/07/22 01:02:17;;;;;;;7.38;4.68;;;18.70;99.90;;;;;;4955820;28;20173;-57
2022/07/22 01:04:43;;;;;;;12.63;4.75;;;18.60;99.90;;;;;;4956189;28;20173;-58
2022/07/22 01:07:09;;;;;;;9.00;4.47;;;18.60;99.90;;;;;;4955848;29;20179;-57
2022/07/22 01:09:35;;;;;;;8.80;5.20;;;18.60;99.90;;;;;;4955871;28;20607;-58
2022/07/22 01:12:02;;;;;;;9.15;4.75;;;18.60;99.90;;;;;;4955607;28;20176;-57
2022/07/22 01:14:28;;;;;;;14.52;5.20;;;18.50;99.90;;;;;;4955835;28;20185;-57
2022/07/22 01:16:54;;;;;;;12.82;4.95;;;18.50;99.90;;;;;;4955782;28;20176;-57
2022/07/22 01:19:20;;;;;;;10.07;5.15;;;18.50;99.90;;;;;;4955607;28;20219;-57
2022/07/22 01:21:46;;;;;;;10.55;4.68;;;18.50;99.90;;;;;;4955549;28;20212;-57
2022/07/22 01:24:12;;;;;;;11.88;5.30;;;18.40;99.90;;;;;;4955554;28;20227;-57
2022/07/22 01:26:38;;;;;;;9.93;5.05;;;18.40;99.90;;;;;;4955656;28;20168;-57
2022/07/22 01:29:04;;;;;;;17.35;5.57;;;18.40;99.90;;;;;;4955087;28;20176;-57
2022/07/22 01:31:30;;;;;;;12.02;5.28;;;18.30;99.90;;;;;;4955580;28;20181;-57
2022/07/22 01:33:56;;;;;;;12.43;6.18;;;18.20;99.90;;;;;;4955637;28;20723;-57
2022/07/22 01:36:22;;;;;;;11.82;5.55;;;18.30;99.90;;;;;;4955473;28;20188;-57
2022/07/22 01:38:48;;;;;;;15.77;5.80;;;18.60;99.90;;;;;;4955374;28;20180;-57
2022/07/22 01:41:14;;;;;;;12.32;5.50;;;18.70;99.90;;;;;;4955360;28;20203;-58
2022/07/22 01:43:40;;;;;;;16.60;5.68;;;18.80;99.90;;;;;;4955098;28;20188;-57
2022/07/22 01:46:06;;;;;;;10.05;5.32;;;18.80;99.90;;;;;;4955199;28;20191;-56
2022/07/22 01:48:32;;;;;;;9.95;5.00;;;18.80;99.90;;;;;;4952751;29;20303;-57
2022/07/22 01:50:59;;;;;;;12.18;5.28;;;18.80;99.90;;;;;;4944054;28;20298;-57
2022/07/22 01:53:25;;;;;;;11.85;5.50;;;18.80;99.90;;;;;;4955137;28;20310;-57
2022/07/22 01:55:51;;;;;;;12.18;5.45;;;18.80;99.90;;;;;;4941279;29;20213;-57
2022/07/22 01:58:17;;;;;;;11.50;5.15;;;18.80;99.90;;;;;;4935857;29;20552;-57
2022/07/22 02:00:44;;;;;;;11.80;4.97;;;18.70;99.90;;;;;;4942927;29;20172;-57
2022/07/22 02:03:10;;;;;;;13.13;4.90;;;18.60;99.90;;;;;;4953541;29;20181;-57
2022/07/22 02:05:36;;;;;;;10.95;5.07;;;18.60;99.90;;;;;;4953769;29;20658;-56
2022/07/22 02:08:04;;;;;;;12.90;4.90;;;18.50;99.90;;;;;;4954821;28;20180;-57
2022/07/22 02:10:30;;;;;;;10.48;4.50;;;18.40;99.90;;;;;;4954003;28;20705;-57
2022/07/22 02:12:57;;;;;;;9.73;5.15;;;18.50;99.90;;;;;;4954239;28;20177;-57
2022/07/22 02:15:23;;;;;;;13.13;5.43;;;18.50;99.90;;;;;;4955039;28;20191;-57
2022/07/22 02:17:49;;;;;;;8.27;4.88;;;18.50;99.90;;;;;;4954772;28;20165;-57
2022/07/22 02:20:15;;;;;;;9.20;3.80;;;18.40;99.90;;;;;;4954195;28;20291;-58
2022/07/22 02:22:41;;;;;;;12.38;5.50;;;18.30;99.90;;;;;;4954552;29;20232;-58
2022/07/22 02:25:07;;;;;;;10.75;4.60;;;18.30;99.90;;;;;;4954545;29;20183;-58
2022/07/22 02:27:33;;;;;;;14.93;5.20;;;18.40;99.90;;;;;;4954605;29;20176;-58
2022/07/22 02:29:59;;;;;;;12.48;4.93;;;18.40;99.90;;;;;;4954044;29;20212;-58
2022/07/22 02:32:24;;;;;;;13.07;5.22;;;18.30;99.90;;;;;;4954496;28;20177;-58
2022/07/22 02:34:50;;;;;;;12.63;4.72;;;18.30;99.90;;;;;;4954258;28;20188;-58
2022/07/22 02:37:16;;;;;;;12.35;5.65;;;18.30;99.90;;;;;;4954362;28;20264;-59
2022/07/22 02:39:42;;;;;;;12.10;5.22;;;18.30;99.90;;;;;;4954256;28;20200;-58
2022/07/22 02:42:08;;;;;;;11.13;5.40;;;18.30;99.90;;;;;;4954151;28;20714;-58
2022/07/22 02:44:34;;;;;;;11.10;5.38;;;18.30;99.90;;;;;;4954124;29;20671;-57
2022/07/22 02:47:00;;;;;;;11.35;5.65;;;18.30;99.90;;;;;;4953987;28;20323;-57
2022/07/22 02:49:26;;;;;;;11.30;5.38;;;18.30;99.90;;;;;;4954032;29;20204;-57
2022/07/22 02:51:51;;;;;;;13.00;5.03;;;18.30;99.90;;;;;;4954050;28;20195;-57
2022/07/22 02:54:17;;;;;;;13.98;5.18;;;18.30;99.90;;;;;;4954042;29;20173;-58
2022/07/22 02:56:43;;;;;;;10.40;5.07;;;18.20;99.90;;;;;;4953788;29;20177;-59
2022/07/22 02:59:09;;;;;;;10.95;4.90;;;18.30;99.90;;;;;;4952720;29;20176;-56
2022/07/22 03:01:35;;;;;;;13.23;4.95;;;18.20;99.90;;;;;;4953717;28;20177;-58
2022/07/22 03:04:01;;;;;;;11.45;4.93;;;18.20;99.90;;;;;;4953806;28;20187;-57
2022/07/22 03:06:27;;;;;;;10.40;4.53;;;18.20;99.90;;;;;;4953743;28;20675;-57
2022/07/22 03:08:53;;;;;;;13.95;5.35;;;18.20;99.90;;;;;;4953818;28;20673;-58
2022/07/22 03:11:19;;;;;;;10.48;4.93;;;18.20;99.90;;;;;;4953433;28;20218;-57
2022/07/22 03:13:45;;;;;;;12.10;5.20;;;18.20;99.90;;;;;;4953392;29;20177;-56
2022/07/22 03:16:11;;;;;;;12.77;4.95;;;18.10;99.90;;;;;;4953624;28;20180;-56
2022/07/22 03:18:37;;;;;;;10.63;4.28;;;18.10;99.90;;;;;;4953515;28;20184;-56
2022/07/22 03:21:03;;;;;;;12.75;4.30;;;18.10;99.90;;;;;;4953474;28;20274;-56
2022/07/22 03:23:29;;;;;;;13.18;5.38;;;18.00;99.90;;;;;;4953615;28;20200;-56
2022/07/22 03:25:56;;;;;;;17.00;5.45;;;18.00;99.90;;;;;;4953520;28;20248;-56
2022/07/22 03:28:22;;;;;;;11.93;4.90;;;18.00;99.90;;;;;;4952793;28;20192;-56
2022/07/22 03:30:48;;;;;;;10.77;4.90;;;18.00;99.90;;;;;;4952799;29;20687;-56
2022/07/22 03:33:14;;;;;;;13.18;4.68;;;18.00;99.90;;;;;;4953356;29;20172;-57
2022/07/22 03:35:40;;;;;;;10.23;5.00;;;18.00;99.90;;;;;;4953533;28;20184;-57
2022/07/22 03:38:06;;;;;;;16.75;5.13;;;17.90;99.90;;;;;;4953532;28;20172;-57
2022/07/22 03:40:32;;;;;;;20.95;5.47;;;17.90;99.90;;;;;;4953297;28;20666;-57
2022/07/22 03:42:58;;;;;;;9.98;4.70;;;17.90;99.90;;;;;;4952751;28;20184;-57
2022/07/22 03:45:24;;;;;;;11.48;5.20;;;17.90;99.90;;;;;;4953266;28;20183;-57
2022/07/22 03:47:49;;;;;;;15.18;5.20;;;17.90;99.90;;;;;;4953038;28;20176;-57
2022/07/22 03:50:15;;;;;;;16.40;4.80;;;17.80;99.90;;;;;;4953032;28;20256;-58
2022/07/22 03:52:41;;;;;;;15.63;5.18;;;17.80;99.90;;;;;;4953117;28;20231;-57
2022/07/22 03:55:07;;;;;;;14.93;5.03;;;17.80;99.90;;;;;;4952697;28;20216;-58
2022/07/22 03:57:33;;;;;;;16.02;4.90;;;17.80;99.90;;;;;;4953199;28;20629;-57
2022/07/22 03:59:59;;;;;;;14.32;4.50;;;17.80;99.90;;;;;;4952870;28;20208;-57
2022/07/22 04:02:25;;;;;;;16.45;5.03;;;17.70;99.90;;;;;;4950597;28;20197;-57
2022/07/22 04:04:51;;;;;;;11.90;4.63;;;17.70;99.90;;;;;;4942104;28;20192;-57
2022/07/22 04:07:16;;;;;;;12.48;4.57;;;17.70;99.90;;;;;;4951744;29;20172;-57
2022/07/22 04:09:42;;;;;;;17.77;4.25;;;17.70;99.90;;;;;;4952710;28;20200;-57
2022/07/22 04:12:08;;;;;;;15.27;4.72;;;17.70;99.90;;;;;;4952607;28;20252;-58
2022/07/22 04:14:34;;;;;;;13.88;4.55;;;17.70;99.90;;;;;;4952929;28;20180;-57
2022/07/22 04:17:00;;;;;;;12.88;4.20;;;17.80;99.90;;;;;;4952895;29;20183;-59
2022/07/22 04:19:26;;;;;;;15.48;4.90;;;17.70;99.90;;;;;;4952365;28;20220;-61
2022/07/22 04:21:51;;;;;;;11.43;4.53;;;17.70;99.90;;;;;;4952728;29;20554;-58
2022/07/22 04:24:17;;;;;;;10.88;3.95;;;17.70;99.90;;;;;;4952733;28;20164;-58
2022/07/22 04:26:43;;;;;;;19.98;3.83;;;17.70;99.90;;;;;;4952812;28;20180;-63
2022/07/22 04:29:09;;;;;;;15.93;4.20;;;17.70;99.90;;;;;;4952581;28;20177;-57
2022/07/22 04:31:35;;;;;;;18.13;4.85;;;17.70;99.90;;;;;;4952686;28;20616;-57
2022/07/22 04:34:00;;;;;;;12.75;4.57;;;17.70;99.90;;;;;;4955716;28;20183;-57
2022/07/22 04:36:26;;;;;;;12.75;4.63;;;17.70;99.90;;;;;;4956527;28;20227;-56
2022/07/22 04:38:52;;;;;;;9.98;3.95;;;17.80;99.90;;;;;;4956344;28;20173;-57
2022/07/22 04:41:18;;;;;;;11.57;4.40;;;17.90;99.90;;;;;;4956259;28;20176;-57
2022/07/22 04:43:44;;;;;;;12.43;4.28;;;17.90;99.90;;;;;;4956415;28;20244;-57
2022/07/22 04:46:10;;;;;;;15.10;3.95;;;17.90;99.90;;;;;;4956264;28;20180;-57
2022/07/22 04:48:35;;;;;;;13.95;3.85;;;18.00;99.90;;;;;;4956352;28;20259;-57
2022/07/22 04:51:02;;;;;;;18.08;4.20;;;18.10;99.90;;;;;;4956042;28;20209;-57
2022/07/22 04:53:28;;;;;;;12.40;3.80;;;18.00;99.90;;;;;;4956255;28;20275;-57
2022/07/22 04:55:55;;;;;;;11.20;3.90;;;18.00;99.90;;;;;;4954856;29;20176;-57
2022/07/22 04:58:21;;;;;;;11.27;3.65;;;18.00;99.90;;;;;;4954794;28;20169;-57
2022/07/22 05:00:47;;;;;;;12.27;3.90;;;18.00;99.90;;;;;;4956633;29;20192;-57
2022/07/22 05:03:13;;;;;;;14.75;3.67;;;18.10;99.90;;;;;;4956087;28;20633;-56
2022/07/22 05:05:39;;;;;;;15.00;3.38;;;18.10;99.90;;;;;;4955795;28;20184;-57
2022/07/22 05:08:05;;;;;;;13.52;3.50;;;18.10;99.90;;;;;;4956270;28;20183;-57
2022/07/22 05:10:32;;;;;;;13.65;3.53;;;18.10;99.90;;;;;;4955957;28;20234;-57
2022/07/22 05:12:58;;;;;;;12.40;3.45;;;18.20;99.90;;;;;;4955694;28;20289;-57
2022/07/22 05:15:24;;;;;;;14.90;3.80;;;18.10;99.90;;;;;;4955752;28;20173;-57
2022/07/22 05:17:50;;;;;;;12.73;3.13;;;18.10;99.90;;;;;;4956059;29;20180;-57
2022/07/22 05:20:16;;;;;;;13.93;3.75;;;18.10;99.90;;;;;;4955252;29;20282;-57
2022/07/22 05:22:42;;;;;;;13.13;3.08;;;18.10;99.90;;;;;;4955892;28;20172;-57
2022/07/22 05:25:08;;;;;;;16.55;3.83;;;18.10;99.90;;;;;;4955828;28;20319;-57
2022/07/22 05:27:34;;;;;;;16.88;3.75;;;18.10;99.90;;;;;;4955303;28;20187;-57
2022/07/22 05:30:00;;;;;;;14.05;3.40;;;18.20;99.90;;;;;;4955416;28;20208;-57
2022/07/22 05:32:26;;;;;;;14.73;3.28;;;18.20;99.90;;;;;;4955471;28;20172;-57
2022/07/22 05:34:52;;;;;;;11.70;3.22;;;18.20;99.90;;;;;;4955594;28;20663;-57
2022/07/22 05:37:17;;;;;;;13.27;2.80;;;18.20;99.90;;;;;;4955437;29;20184;-56
2022/07/22 05:39:44;;;;;;;17.50;3.45;;;18.20;99.90;;;;;;4955359;28;20171;-56
2022/07/22 05:42:10;;;;;;;15.18;3.75;;;18.10;99.90;;;;;;4955181;28;20685;-57
2022/07/22 05:44:36;;;;;;;16.92;3.40;;;18.10;99.90;;;;;;4954143;28;20180;-56
2022/07/22 05:47:01;;;;;;;15.02;3.33;;;18.20;99.90;;;;;;4955077;28;20267;-56
2022/07/22 05:49:27;;;;;;;15.35;3.30;;;18.20;99.90;;;;;;4955186;28;20192;-57
2022/07/22 05:51:54;;;;;;;15.75;3.33;;;18.30;99.90;;;;;;4955221;28;20180;-56
2022/07/22 05:54:20;;;;;;;15.20;3.50;;;18.30;99.90;;;;;;4955182;28;20180;-56
2022/07/22 05:56:45;;;;;;;17.27;3.55;;;18.30;99.90;;;;;;4955075;29;20194;-56
2022/07/22 05:59:11;;;;;;;17.40;3.92;;;18.20;99.90;;;;;;4954740;28;20184;-57
2022/07/22 06:01:37;;;;;;;15.70;3.55;;;18.20;99.90;;;;;;4954963;28;20248;-57
2022/07/22 06:04:03;;;;;;;20.80;4.13;;;18.40;99.90;;;;;;4953770;28;20228;-57
2022/07/22 06:06:29;;;;;;;16.98;3.20;;;18.30;99.90;;;;;;4954785;28;20177;-57
2022/07/22 06:08:55;;;;;;;19.65;3.78;;;18.40;99.90;;;;;;4954875;28;20227;-57
2022/07/22 06:11:21;;;;;;;17.65;3.42;;;18.50;99.90;;;;;;4954298;28;20325;-57
2022/07/22 06:13:47;;;;;;;17.77;2.88;;;18.50;99.90;;;;;;4954666;28;20172;-55
2022/07/22 06:16:12;;;;;;;23.45;3.40;;;18.50;99.90;;;;;;4954699;28;20583;-57
2022/07/22 06:18:38;;;;;;;18.63;3.50;;;18.50;99.90;;;;;;4954608;28;20176;-57
2022/07/22 06:21:04;;;;;;;12.93;3.42;;;18.50;99.90;;;;;;4952437;29;20227;-56
2022/07/22 06:23:30;;;;;;;21.02;4.00;;;18.60;99.90;;;;;;4954522;28;20587;-57
2022/07/22 06:25:56;;;;;;;15.45;3.40;;;18.60;99.90;;;;;;4954552;29;20169;-57
2022/07/22 06:28:22;;;;;;;12.23;3.03;;;18.50;99.90;;;;;;4953545;28;20172;-57
2022/07/22 06:30:47;;;;;;;25.05;3.55;;;18.50;99.90;;;;;;4954294;28;20216;-57
2022/07/22 06:33:13;;;;;;;18.02;3.28;;;18.40;99.90;;;;;;4946733;29;20187;-57
2022/07/22 06:35:43;;;;;;;19.40;3.53;;;18.30;99.90;;;;;;4948455;29;20263;-57
2022/07/22 06:38:08;;;;;;;14.88;2.92;;;18.30;99.90;;;;;;4953979;28;20184;-57
2022/07/22 06:40:35;;;;;;;18.83;3.38;;;18.30;99.90;;;;;;4954180;28;20536;-56
2022/07/22 06:43:01;;;;;;;16.13;3.17;;;18.40;99.90;;;;;;4953769;28;20233;-56
2022/07/22 06:45:27;;;;;;;14.98;3.55;;;18.40;99.90;;;;;;4954035;28;20211;-57
2022/07/22 06:47:52;;;;;;;12.13;3.00;;;18.40;99.90;;;;;;4953954;28;20204;-57
2022/07/22 06:50:18;;;;;;;15.50;3.25;;;18.50;99.90;;;;;;4954044;28;20214;-56
2022/07/22 06:52:45;;;;;;;13.98;2.72;;;18.60;99.90;;;;;;4953982;28;20175;-61
2022/07/22 06:55:10;;;;;;;12.98;2.80;;;18.60;99.90;;;;;;4953721;28;20211;-58
2022/07/22 06:57:36;;;;;;;12.77;2.60;;;18.60;99.90;;;;;;4953902;28;20204;-57
2022/07/22 07:00:06;;;;;;;12.18;2.70;;;18.70;99.90;;;;;;4953887;28;20187;-56
2022/07/22 07:02:32;;;;;;;13.15;3.05;;;18.70;99.90;;;;;;4953505;28;20184;-56
2022/07/22 07:04:58;;;;;;;9.68;2.30;;;18.70;99.90;;;;;;4953163;28;20181;-58
2022/07/22 07:07:24;;;;;;;15.25;2.63;;;18.80;99.90;;;;;;4953265;28;20178;-58
2022/07/22 07:09:49;;;;;;;11.32;2.78;;;18.80;99.90;;;;;;4953655;28;20274;-58
2022/07/22 07:12:15;;;;;;;8.85;2.25;;;18.90;99.90;;;;;;4953607;28;20581;-59
2022/07/22 07:14:41;;;;;;;15.05;2.42;;;18.80;99.90;;;;;;4953426;28;20176;-59
2022/07/22 07:17:07;;;;;;;9.95;2.30;;;19.00;99.90;;;;;;4953512;29;20651;-59
2022/07/22 07:19:33;;;;;;;11.70;2.13;;;19.20;99.90;;;;;;4953392;28;20258;-59
2022/07/22 07:21:59;;;;;;;9.48;2.20;;;19.30;99.90;;;;;;4953536;29;20180;-59
2022/07/22 07:24:24;;;;;;;10.05;2.13;;;19.20;99.90;;;;;;4952218;28;20181;-58
2022/07/22 07:26:50;;;;;;;12.73;2.40;;;19.30;99.90;;;;;;4953296;28;20660;-65
2022/07/22 07:29:16;;;;;;;9.15;2.17;;;19.30;99.90;;;;;;4952680;29;20205;-65
2022/07/22 07:31:42;;;;;;;15.65;2.70;;;19.20;99.90;;;;;;4953125;28;20187;-65
2022/07/22 07:34:08;;;;;;;10.45;2.50;;;19.30;99.90;;;;;;4953859;28;20263;-64
2022/07/22 07:36:33;;;;;;;9.65;2.40;;;19.00;99.90;;;;;;4953290;28;20601;-64
2022/07/22 07:38:59;;;;;;;13.98;2.60;;;19.00;99.90;;;;;;4953236;28;20183;-63
2022/07/22 07:41:25;;;;;;;18.02;2.60;;;19.00;99.90;;;;;;4953083;28;20172;-63
2022/07/22 07:43:51;;;;;;;13.50;2.45;;;19.00;99.90;;;;;;4953047;28;20335;-62
2022/07/22 07:46:17;;;;;;;9.75;2.05;;;18.90;99.90;;;;;;4953235;29;20173;-63
2022/07/22 07:48:42;;;;;;;7.88;2.17;;;19.00;99.90;;;;;;4953236;28;20224;-63
2022/07/22 07:51:08;;;;;;;14.13;2.28;;;19.10;99.90;;;;;;4953090;28;20687;-64
2022/07/22 07:53:34;;;;;;;11.88;2.67;;;19.10;99.90;;;;;;4952514;28;20211;-62
2022/07/22 07:56:00;;;;;;;11.05;2.35;;;19.00;99.90;;;;;;4952907;29;20644;-64
2022/07/22 07:58:26;;;;;;;9.35;2.42;;;19.20;99.90;;;;;;4953091;28;20172;-66
2022/07/22 08:00:52;;;;;;;15.63;2.50;;;19.10;99.90;;;;;;4956957;28;20219;-66
2022/07/22 08:03:17;;;;;;;11.55;2.38;;;19.20;99.90;;;;;;4952708;29;20632;-64
2022/07/22 08:05:43;;;;;;;14.50;2.70;;;19.30;99.90;;;;;;4952719;28;20691;-63
2022/07/22 08:08:09;;;;;;;9.27;2.40;;;19.30;99.90;;;;;;4952144;28;20168;-63
2022/07/22 08:10:35;;;;;;;11.88;2.25;;;19.40;99.90;;;;;;4952740;28;20714;-64
2022/07/22 08:13:01;;;;;;;10.00;2.10;;;19.40;99.90;;;;;;4951232;29;20671;-64
2022/07/22 08:15:28;;;;;;;10.73;2.22;;;19.60;99.90;;;;;;4952758;28;20181;-64
2022/07/22 08:17:54;;;;;;;10.73;2.30;;;20.00;99.90;;;;;;4952849;28;20200;-64
2022/07/22 08:20:21;;;;;;;11.05;2.30;;;20.10;99.90;;;;;;4952140;29;20255;-63
2022/07/22 08:22:47;;;;;;;13.90;2.75;;;20.10;99.90;;;;;;4952902;28;20177;-64
2022/07/22 08:25:13;;;;;;;12.05;2.58;;;20.20;99.90;;;;;;4952782;28;20394;-64
2022/07/22 08:27:39;;;;;;;12.30;2.70;;;20.00;99.90;;;;;;4952585;28;20177;-64
2022/07/22 08:30:05;;;;;;;7.40;2.30;;;20.00;99.90;;;;;;4952506;29;20204;-64
2022/07/22 08:32:32;;;;;;;13.65;2.38;;;20.10;99.90;;;;;;4952612;28;20189;-65
2022/07/22 08:34:58;;;;;;;18.85;3.03;;;20.30;99.90;;;;;;4952716;28;20180;-65
2022/07/22 08:37:25;;;;;;;13.38;2.67;;;20.30;99.90;;;;;;4952648;28;20188;-64
2022/07/22 08:39:53;;;;;;;13.52;2.33;;;20.20;99.90;;;;;;4950803;28;20244;-64
2022/07/22 08:42:21;;;;;;;12.63;3.25;;;20.00;99.90;;;;;;4939664;28;20569;-65
2022/07/22 08:44:47;;;;;;;12.63;2.85;;;19.90;99.90;;;;;;4955165;28;20283;-65
2022/07/22 08:47:13;;;;;;;14.90;2.95;;;20.30;99.90;;;;;;4952440;28;20176;-64
2022/07/22 08:49:46;;;;;;;17.70;2.92;;;20.00;99.90;;;;;;4952426;28;20555;-65
2022/07/22 08:52:11;;;;;;;22.08;3.88;;;19.90;99.90;;;;;;4952768;28;20670;-65
2022/07/22 08:54:37;;;;;;;21.15;2.95;;;20.00;99.90;;;;;;4956997;28;20172;-63
2022/07/22 08:57:03;;;;;;;15.60;3.30;;;20.20;99.90;;;;;;4957889;28;20227;-65
2022/07/22 08:59:29;;;;;;;10.93;3.17;;;20.30;99.90;;;;;;4959980;28;20191;-61
2022/07/22 09:02:11;;;;;;;16.38;2.97;;;19.90;99.90;;;;;;4952033;28;20181;-67
2022/07/22 09:05:01;;;;;;;18.20;3.58;;;19.80;99.90;;;;;;4952546;28;20189;-65
2022/07/22 09:07:34;;;;;;;17.13;3.50;;;20.00;99.90;;;;;;4971680;28;20534;-66
2022/07/22 09:10:00;;;;;;;18.65;4.03;;;20.10;99.90;;;;;;4959851;28;20220;-69
2022/07/22 09:12:31;;;;;;;13.38;2.92;;;20.70;99.90;;;;;;4952481;28;20169;-67
2022/07/22 09:14:59;;;;;;;11.38;2.95;;;21.10;99.90;;;;;;4952486;28;20180;-66
2022/07/22 09:17:28;;;;;;;10.05;2.88;;;21.60;99.90;;;;;;4952429;28;20177;-67
2022/07/22 09:19:59;;;;;;;14.90;3.45;;;22.00;99.90;;;;;;4954772;28;20220;-67
2022/07/22 09:22:32;;;;;;;17.70;3.53;;;22.50;99.90;;;;;;4955823;28;20172;-66
2022/07/22 09:25:16;;;;;;;18.67;3.60;;;22.50;99.90;;;;;;4955888;28;20267;-66
2022/07/22 09:27:41;;;;;;;16.13;3.50;;;22.20;99.90;;;;;;4967509;28;20183;-66
2022/07/22 09:30:16;;;;;;;14.55;3.83;;;21.90;99.90;;;;;;4955063;28;20204;-66
2022/07/22 09:32:43;;;;;;;14.27;3.60;;;21.70;99.90;;;;;;4955614;28;20172;-66
2022/07/22 09:35:10;;;;;;;12.02;3.17;;;21.30;99.90;;;;;;4955225;28;20200;-66
2022/07/22 09:37:57;;;;;;;11.35;2.60;;;21.90;99.90;;;;;;4955318;28;20711;-66
2022/07/22 09:40:29;;;;;;;16.20;3.80;;;22.20;99.90;;;;;;4954710;28;20180;-66
2022/07/22 09:42:57;;;;;;;16.83;3.67;;;22.30;99.90;;;;;;4955326;29;20551;-67
2022/07/22 09:45:26;;;;;;;20.52;3.40;;;22.00;99.90;;;;;;4957974;28;20647;-66
2022/07/22 09:47:55;;;;;;;16.95;3.50;;;21.70;99.90;;;;;;4955182;28;20232;-66
2022/07/22 09:50:24;;;;;;;13.23;3.17;;;21.80;99.90;;;;;;4954244;28;21068;-66
2022/07/22 09:52:52;;;;;;;15.43;3.50;;;22.30;99.90;;;;;;4961077;28;20246;-66
2022/07/22 09:55:20;;;;;;;11.38;3.60;;;22.50;99.90;;;;;;4965292;28;20179;-66
2022/07/22 09:57:47;;;;;;;12.15;3.58;;;22.50;99.90;;;;;;4974402;28;20164;-66
2022/07/22 10:00:16;;;;;;;14.45;4.28;;;22.50;99.90;;;;;;4974413;28;20258;-66
2022/07/22 10:02:48;;;;;;;18.23;3.47;;;22.70;99.90;;;;;;4968456;28;20192;-65
2022/07/22 10:05:17;;;;;;;9.65;3.20;;;23.00;99.90;;;;;;4964528;28;20176;-66
2022/07/22 10:07:44;;;;;;;13.90;3.05;;;23.60;99.90;;;;;;4974280;28;20195;-67
2022/07/22 10:10:13;;;;;;;21.73;4.10;;;24.50;99.90;;;;;;4957042;28;20215;-67
2022/07/22 10:12:39;;;;;;;12.88;3.45;;;25.30;99.90;;;;;;4954883;29;20210;-67
2022/07/22 10:15:07;;;;;;;14.85;3.80;;;25.90;99.90;;;;;;4954598;29;20683;-66
2022/07/22 10:17:36;;;;;;;16.08;4.25;;;25.50;99.90;;;;;;4954056;28;20235;-67
2022/07/22 10:20:03;;;;;;;25.23;4.05;;;25.20;99.90;;;;;;4952356;29;20235;-66
2022/07/22 10:22:41;;;;;;;11.93;3.40;;;25.00;99.90;;;;;;4954785;28;20191;-66
2022/07/22 10:25:09;;;;;;;14.80;3.85;;;25.20;99.90;;;;;;4953116;28;20180;-65
2022/07/22 10:27:47;;;;;;;18.27;4.22;;;24.80;99.90;;;;;;4949955;29;20224;-65
2022/07/22 10:30:19;;;;;;;13.48;3.45;;;24.40;99.90;;;;;;4934710;29;20246;-66
2022/07/22 10:33:00;;;;;;;12.32;3.85;;;24.10;99.90;;;;;;4935369;29;20173;-66
2022/07/22 10:35:26;;;;;;;13.45;4.18;;;23.80;99.90;;;;;;4935264;29;20263;-66
2022/07/22 10:37:55;;;;;;;16.08;3.58;;;23.70;99.90;;;;;;4934433;29;20591;-66
2022/07/22 10:40:45;;;;;;;11.93;4.00;;;23.90;99.90;;;;;;4933671;29;20609;-66
2022/07/22 10:43:12;;;;;;;15.13;3.97;;;23.90;99.90;;;;;;4935220;29;20192;-64
2022/07/22 10:45:46;;;;;;;16.17;4.68;;;23.70;99.90;;;;;;4935178;29;20173;-68
2022/07/22 10:48:32;;;;;;;15.00;3.80;;;23.50;99.90;;;;;;4938883;29;20168;-68
2022/07/22 10:51:04;;;;;;;13.90;4.30;;;23.40;99.90;;;;;;4934525;29;20625;-65
2022/07/22 10:53:56;;;;;;;19.60;4.10;;;23.10;99.90;;;;;;4953095;28;20180;-67
2022/07/22 10:56:29;;;;;;;15.07;4.47;;;23.10;99.90;;;;;;4953895;28;20240;-66
2022/07/22 10:59:10;;;;;;;16.92;4.38;;;23.00;99.90;;;;;;4953773;29;20169;-67
2022/07/22 11:01:42;;;;;;;13.57;4.00;;;22.90;99.90;;;;;;4953843;28;20180;-67
2022/07/22 11:04:15;;;;;;;12.13;4.20;;;22.80;99.90;;;;;;4952556;28;20181;-66
2022/07/22 11:06:42;;;;;;;16.80;4.68;;;22.70;99.90;;;;;;4953906;29;20200;-58
2022/07/22 11:09:14;;;;;;;17.52;4.68;;;22.60;99.90;;;;;;4953925;28;20184;-59
2022/07/22 11:11:46;;;;;;;13.98;4.68;;;22.50;99.90;;;;;;4934469;29;20189;-58
2022/07/22 11:14:27;;;;;;;13.15;4.45;;;22.50;99.90;;;;;;4939208;29;20189;-58
2022/07/22 11:16:55;;;;;;;19.50;4.32;;;22.30;99.90;;;;;;4945200;29;20181;-58
2022/07/22 11:19:26;;;;;;;13.65;4.45;;;22.20;99.90;;;;;;4934350;29;20192;-58
2022/07/22 11:21:58;;;;;;;14.98;4.22;;;21.90;99.90;;;;;;4938757;29;20192;-58
2022/07/22 11:24:25;;;;;;;15.48;4.93;;;21.70;99.90;;;;;;4953545;28;20666;-58
2022/07/22 11:26:52;;;;;;;17.00;4.90;;;21.50;99.90;;;;;;4953632;28;20188;-59
2022/07/22 11:29:26;;;;;;;13.02;4.72;;;21.40;99.90;;;;;;4953042;28;20578;-58
2022/07/22 11:31:52;;;;;;;19.00;4.43;;;21.30;99.90;;;;;;4952226;28;20251;-58
2022/07/22 11:34:20;;;;;;;15.13;4.75;;;21.30;99.90;;;;;;4949321;28;20260;-58
2022/07/22 11:36:46;;;;;;;15.32;5.38;;;21.10;99.90;;;;;;4953065;29;20216;-57
2022/07/22 11:39:15;;;;;;;16.65;5.45;;;20.90;99.90;;;;;;4953300;28;20299;-57
2022/07/22 11:41:41;;;;;;;15.50;5.32;;;20.40;99.90;;;;;;4952208;28;20547;-57
2022/07/22 11:44:08;;;;;;;23.50;7.25;;;19.60;99.90;;;;;;4952630;28;20176;-67
2022/07/22 11:46:41;;;;;;;39.40;11.20;;;18.80;99.90;;;;;;4953210;28;20205;-66
2022/07/22 11:49:09;;;;;;;22.73;8.20;;;18.80;99.90;;;;;;4952166;29;20169;-67
2022/07/22 11:51:37;;;;;;;28.83;10.18;;;18.50;99.90;;;;;;4942456;29;20231;-66
2022/07/22 11:54:05;;;;;;;34.33;9.27;;;18.40;99.90;;;;;;4952956;29;20172;-67
2022/07/22 11:56:31;;;;;;;29.38;10.82;;;18.10;99.90;;;;;;4952945;28;20315;-68
2022/07/22 11:58:57;;;;;;;27.13;11.80;;;18.20;99.90;;;;;;4953095;28;20176;-66
2022/07/22 12:01:28;;;;;;;35.38;13.50;;;18.10;99.90;;;;;;4953057;28;20243;-68
2022/07/22 12:03:58;;;;;;;29.38;13.35;;;18.10;99.90;;;;;;4953019;28;20255;-67
2022/07/22 12:06:25;;;;;;;36.63;13.68;;;18.20;99.90;;;;;;4952677;29;20184;-68
2022/07/22 12:09:07;;;;;;;27.90;12.73;;;18.20;99.90;;;;;;4951883;28;20172;-67
2022/07/22 12:11:34;;;;;;;31.48;14.10;;;18.20;99.90;;;;;;4952262;28;20220;-67
2022/07/22 12:14:07;;;;;;;29.30;12.82;;;18.30;99.90;;;;;;4951610;28;20173;-66
2022/07/22 12:16:33;;;;;;;34.25;12.13;;;18.30;99.90;;;;;;4933944;29;20193;-67
2022/07/22 12:19:03;;;;;;;26.35;11.73;;;18.30;99.90;;;;;;4951972;28;20176;-66
2022/07/22 12:21:32;;;;;;;28.52;12.90;;;18.40;99.90;;;;;;4951935;28;20248;-67
2022/07/22 12:24:05;;;;;;;25.73;11.00;;;18.50;99.90;;;;;;4952855;28;20259;-66
2022/07/22 12:26:48;;;;;;;21.30;10.48;;;18.50;99.90;;;;;;4952478;28;20187;-66
2022/07/22 12:29:24;;;;;;;24.52;11.00;;;18.50;99.90;;;;;;4952860;28;20169;-67
2022/07/22 12:31:53;;;;;;;28.65;10.55;;;18.60;99.90;;;;;;4952819;28;20183;-67
2022/07/22 12:34:40;;;;;;;26.50;11.93;;;18.60;99.90;;;;;;4952711;28;20169;-67
2022/07/22 12:37:16;;;;;;;23.02;11.35;;;18.60;99.90;;;;;;4939617;28;20653;-67
2022/07/22 12:40:05;;;;;;;26.48;11.60;;;18.80;99.90;;;;;;4933653;29;20176;-67